Data for 09/02/2010

Time Sea-Level Adjusted Pressure Absolute Pressure Temperature Relative Humidity Dew Point   
(mb) (inHg) (mb) (inHg) (C) (F) (%) (C) (F)
00:05 1024 30.24 854 25.22 5.8 42.5 88 4 39.1
00:10 1024 30.24 854 25.22 5.6 42 88 3.7 38.6
00:15 1024 30.24 854 25.22 5.6 42.1 87 3.6 38.4
00:20 1024 30.24 854 25.22 5.7 42.2 87 3.6 38.5
00:25 1024 30.24 854 25.22 5.8 42.4 88 3.9 39.1
00:30 1024 30.24 853 25.19 6 42.9 84 3.6 38.5
00:35 1024 30.24 853 25.19 6.1 43.1 86 3.9 39.1
00:40 1024 30.24 854 25.22 6.1 42.9 88 4.2 39.6
00:45 1024 30.24 854 25.22 5.9 42.6 87 4 39.1
00:50 1024 30.24 854 25.22 5.8 42.5 88 3.9 39.1
00:55 1025 30.27 854 25.22 5.8 42.4 87 3.8 38.9
01:00 1025 30.27 854 25.22 5.9 42.6 86 3.8 38.8
01:05 1025 30.27 854 25.22 6 42.7 87 3.9 39
01:10 1025 30.27 854 25.22 5.9 42.7 87 4 39.2
01:15 1025 30.27 854 25.22 6 42.8 88 4.2 39.6
01:20 1025 30.27 854 25.22 6.3 43.3 85 3.9 39
01:25 1025 30.27 854 25.22 6.6 43.8 83 3.8 38.9
01:30 1025 30.27 854 25.22 6.6 43.9 83 4 39.2
01:35 1025 30.27 854 25.22 6.6 43.9 84 4.2 39.5
01:40 1025 30.27 854 25.22 6.7 44 81 3.7 38.6
01:45 1025 30.27 854 25.22 6.8 44.3 80 3.6 38.5
01:50 1025 30.27 854 25.22 7 44.6 79 3.6 38.4
01:55 1025 30.27 854 25.22 7.1 44.8 78 3.6 38.4
02:00 1025 30.27 854 25.22 7.1 44.8 78 3.6 38.4
02:05 1025 30.27 854 25.22 7.2 44.9 77 3.4 38
02:10 1025 30.27 854 25.22 7.2 45 78 3.6 38.5
02:15 1025 30.27 854 25.22 7.2 44.9 80 3.9 39
02:20 1025 30.27 854 25.22 6.9 44.5 82 4.1 39.3
02:25 1025 30.27 855 25.25 6.7 44.1 85 4.4 39.9
02:30 1025 30.27 855 25.25 6.4 43.6 87 4.5 40.1
02:35 1025 30.27 855 25.25 6.3 43.3 88 4.5 40.1
02:40 1026 30.3 855 25.25 6.5 43.7 83 3.9 39
02:45 1026 30.3 855 25.25 7 44.6 81 3.9 39
02:50 1026 30.3 855 25.25 7.2 45 79 3.8 38.9
02:55 1026 30.3 855 25.25 7.3 45.2 82 4.4 39.9
03:00 1026 30.3 855 25.25 7.3 45.1 80 4.1 39.4
03:05 1026 30.3 855 25.25 7.4 45.2 82 4.4 39.9
03:10 1026 30.3 855 25.25 7.3 45.1 79 3.9 39
03:15 1026 30.3 855 25.25 7.2 45 80 4 39.2
03:20 1026 30.3 855 25.25 7.1 44.8 80 3.9 39
03:25 1026 30.3 855 25.25 7 44.7 82 4.2 39.6
03:30 1026 30.3 855 25.25 6.9 44.4 83 4.1 39.5
03:35 1026 30.3 855 25.25 6.8 44.2 83 4.2 39.5
03:40 1026 30.3 855 25.25 6.7 44.1 83 4.1 39.4
03:45 1026 30.3 855 25.25 6.6 43.9 84 4.1 39.5
03:50 1026 30.3 855 25.25 6.5 43.7 83 3.9 39
03:55 1026 30.3 855 25.25 6.3 43.3 85 3.9 39.1
04:00 1026 30.3 855 25.25 6 42.7 84 3.4 38.2
04:05 1026 30.3 855 25.25 6.1 43 81 3 37.5
04:10 1026 30.3 855 25.25 6.2 43.2 82 3.3 38
04:15 1026 30.3 856 25.28 5.9 42.5 83 3.2 37.8
04:20 1026 30.3 856 25.28 5.5 41.9 85 3.2 37.8
04:25 1027 30.33 856 25.28 5.1 41.2 87 3.1 37.5
04:30 1027 30.33 856 25.28 4.8 40.7 88 3.1 37.5
04:35 1027 30.33 856 25.28 4.7 40.4 88 2.9 37.2
04:40 1027 30.33 856 25.28 4.7 40.4 87 2.8 37
04:45 1027 30.33 856 25.28 4.7 40.5 87 2.7 36.9
04:50 1027 30.33 856 25.28 4.7 40.5 86 2.6 36.7
04:55 1027 30.33 856 25.28 4.8 40.6 86 2.6 36.8
05:00 1027 30.33 856 25.28 4.7 40.4 86 2.6 36.7
05:05 1027 30.33 856 25.28 4.7 40.5 86 2.5 36.5
05:10 1027 30.33 856 25.28 4.6 40.3 87 2.6 36.6
05:15 1027 30.33 856 25.28 4.6 40.3 86 2.4 36.4
05:20 1027 30.33 856 25.28 4.6 40.3 85 2.3 36.1
05:25 1027 30.33 856 25.28 4.7 40.5 86 2.5 36.5
05:30 1027 30.33 856 25.28 4.5 40.2 86 2.4 36.4
05:35 1027 30.33 856 25.28 4 39.3 90 2.5 36.5
05:40 1027 30.33 856 25.28 3.7 38.6 91 2.3 36.1
05:45 1027 30.33 856 25.28 3.8 38.8 90 2.2 36
05:50 1027 30.33 857 25.31 3.8 38.8 89 2.2 35.9
05:55 1027 30.33 857 25.31 3.8 38.9 89 2.1 35.8
06:00 1027 30.33 857 25.31 3.9 38.9 88 2.1 35.8
06:05 1027 30.33 857 25.31 3.9 39 88 2.1 35.8
06:10 1028 30.36 857 25.31 3.8 38.8 88 2 35.7
06:15 1028 30.36 857 25.31 3.8 38.9 87 1.9 35.5
06:20 1028 30.36 857 25.31 4.1 39.3 86 1.9 35.4
06:25 1028 30.36 857 25.31 4.1 39.5 84 1.7 35.1
06:30 1028 30.36 857 25.31 4.4 40 84 2 35.6
06:35 1028 30.36 857 25.31 4 39.3 87 2 35.6
06:40 1028 30.36 857 25.31 3.8 38.9 87 1.9 35.4
06:45 1028 30.36 857 25.31 3.7 38.7 87 1.8 35.3
06:50 1028 30.36 857 25.31 3.6 38.4 87 1.7 35
06:55 1028 30.36 857 25.31 3.9 39 84 1.4 34.5
07:00 1028 30.36 857 25.31 4 39.1 86 1.8 35.2
07:05 1028 30.36 857 25.31 3.7 38.7 85 1.4 34.5
07:10 1028 30.36 857 25.31 4 39.2 84 1.5 34.7
07:15 1028 30.36 857 25.31 4.2 39.6 83 1.6 34.8
07:20 1028 30.36 857 25.31 4.3 39.8 83 1.6 35
07:25 1028 30.36 857 25.31 4.3 39.8 83 1.7 35.1
07:30 1028 30.36 857 25.31 4.4 39.9 83 1.8 35.2
07:35 1028 30.36 857 25.31 4.5 40.2 81 1.6 34.9
07:40 1028 30.36 857 25.31 4.8 40.6 81 1.8 35.2
07:45 1028 30.36 858 25.34 4.9 40.8 81 1.9 35.4
07:50 1028 30.36 858 25.34 5 41 81 2 35.6
07:55 1028 30.36 858 25.34 5.2 41.3 79 1.9 35.3
08:00 1028 30.36 858 25.34 5.4 41.7 79 2 35.6
08:05 1028 30.36 858 25.34 5.5 42 79 2.1 35.8
08:10 1028 30.36 858 25.34 5.9 42.6 77 2.2 36
08:15 1028 30.36 858 25.34 6.2 43.2 77 2.4 36.3
08:20 1029 30.39 858 25.34 6.4 43.5 77 2.6 36.7
08:25 1029 30.39 858 25.34 6.6 43.9 76 2.8 37
08:30 1029 30.39 858 25.34 7.1 44.8 75 2.9 37.3
08:35 1029 30.39 858 25.34 7 44.5 76 2.9 37.3
08:40 1029 30.39 858 25.34 7.1 44.7 75 3 37.4
08:45 1029 30.39 858 25.34 7.2 44.9 75 3.1 37.5
08:50 1029 30.39 858 25.34 7.2 44.9 78 3.6 38.4
08:55 1029 30.39 858 25.34 7.8 46.1 72 3.1 37.6
09:00 1029 30.39 858 25.34 8.1 46.5 71 3.2 37.8
09:05 1029 30.39 858 25.34 8.4 47.1 69 3.1 37.6
09:10 1029 30.39 858 25.34 8.8 47.8 66 2.9 37.2
09:15 1029 30.39 858 25.34 9.2 48.5 64 2.8 37
09:20 1029 30.39 858 25.34 9.5 49.1 63 2.8 37.1
09:25 1029 30.39 858 25.34 9.8 49.7 61 2.8 37
09:30 1029 30.39 858 25.34 11 51.8 59 3.4 38.2
09:35 1029 30.39 858 25.34 11.4 52.4 58 3.5 38.3
09:40 1029 30.39 858 25.34 10.8 51.5 58 3 37.5
09:45 1029 30.39 858 25.34 10.8 51.5 59 3.2 37.7
09:50 1029 30.39 858 25.34 11.3 52.4 56 3 37.4
09:55 1029 30.39 858 25.34 11.4 52.5 56 2.9 37.1
10:00 1029 30.39 858 25.34 11.3 52.4 55 2.6 36.7
10:05 1029 30.39 858 25.34 10.6 51 57 2.5 36.6
10:10 1029 30.39 858 25.34 11 51.7 54 2.2 35.9
10:15 1029 30.39 858 25.34 11.3 52.3 55 2.7 36.8
10:20 1029 30.39 858 25.34 12.1 53.8 51 2.3 36.2
10:25 1029 30.39 858 25.34 11.4 52.5 54 2.6 36.7
10:30 1029 30.39 858 25.34 11.2 52.1 54 2.4 36.3
10:35 1029 30.39 858 25.34 11.6 52.8 53 2.4 36.3
10:40 1029 30.39 858 25.34 11.7 53.1 50 1.7 35
10:45 1029 30.39 858 25.34 13 55.4 47 1.9 35.5
10:50 1029 30.39 858 25.34 13.6 56.6 45 1.9 35.4
10:55 1029 30.39 858 25.34 13.1 55.6 46 1.7 35
11:00 1029 30.39 858 25.34 13 55.3 44 1.2 34.1
11:05 1029 30.39 858 25.34 12.6 54.7 48 2.1 35.8
11:10 1029 30.39 858 25.34 13.1 55.5 45 1.4 34.5
11:15 1029 30.39 858 25.34 13.7 56.6 45 2 35.6
11:20 1029 30.39 858 25.34 12.9 55.2 46 1.5 34.7
11:25 1029 30.39 858 25.34 13.6 56.5 43 1.3 34.3
11:30 1029 30.39 858 25.34 13.6 56.5 43 1.2 34.2
11:35 1029 30.39 858 25.34 13.7 56.6 45 2.1 35.8
11:40 1029 30.39 858 25.34 13.4 56.2 47 2.4 36.4
11:45 1029 30.39 858 25.34 13.9 57 43 1.6 34.8
11:50 1029 30.39 858 25.34 14.7 58.4 40 1.2 34.2
11:55 1029 30.39 858 25.34 14.9 58.8 38 0.9 33.6
12:00 1029 30.39 858 25.34 14.6 58.2 38 0.4 32.8
12:05 1029 30.39 858 25.34 14.2 57.5 38 0.3 32.5
12:10 1029 30.39 858 25.34 14.6 58.3 40 1.1 34
12:15 1029 30.39 858 25.34 14.5 58.2 39 0.8 33.4
12:20 1029 30.39 858 25.34 14.3 57.7 39 0.5 32.9
12:25 1029 30.39 858 25.34 14.4 58 39 0.6 33.1
12:30 1028 30.36 858 25.34 14.5 58 38 0.3 32.6
12:35 1028 30.36 858 25.34 15.3 59.6 37 1 33.8
12:40 1028 30.36 858 25.34 16.3 61.3 34 0.6 33
12:45 1028 30.36 858 25.34 15.9 60.6 37 1.3 34.3
12:50 1028 30.36 858 25.34 15.6 60.1 36 0.9 33.6
12:55 1028 30.36 857 25.31 15.8 60.5 35 0.5 32.8
13:00 1028 30.36 857 25.31 15.7 60.3 36 1 33.7
13:05 1028 30.36 857 25.31 16.3 61.4 34 0.5 32.9
13:10 1028 30.36 857 25.31 16.1 61 36 1.2 34.1
13:15 1028 30.36 857 25.31 16.3 61.4 36 1.2 34.2
13:20 1028 30.36 857 25.31 16.6 61.9 35 1.3 34.3
13:25 1028 30.36 857 25.31 16.8 62.3 34 1.2 34.2
13:30 1028 30.36 857 25.31 17 62.6 34 1.3 34.4
13:35 1028 30.36 857 25.31 16.9 62.5 36 1.8 35.2
13:40 1028 30.36 857 25.31 17.4 63.3 33 1.2 34.1
13:45 1028 30.36 857 25.31 17.2 63 35 1.6 34.9
13:50 1028 30.36 857 25.31 17.6 63.7 33 1.4 34.6
13:55 1028 30.36 857 25.31 17.7 63.9 33 1.3 34.4
14:00 1028 30.36 857 25.31 17.5 63.6 32 0.9 33.6
14:05 1028 30.36 857 25.31 17.6 63.7 33 1.1 34
14:10 1028 30.36 857 25.31 17.6 63.7 33 1.4 34.6
14:15 1028 30.36 857 25.31 17.2 62.9 33 1 33.8
14:20 1028 30.36 857 25.31 17.5 63.5 32 0.7 33.3
14:25 1028 30.36 857 25.31 18.2 64.8 31 1.2 34.1
14:30 1028 30.36 857 25.31 18.2 64.7 32 1.5 34.6
14:35 1028 30.36 857 25.31 17.9 64.2 32 1.1 33.9
14:40 1028 30.36 857 25.31 18.1 64.5 32 1.3 34.3
14:45 1028 30.36 857 25.31 18.1 64.6 32 1.2 34.2
14:50 1028 30.36 857 25.31 18.1 64.5 32 1 33.9
14:55 1028 30.36 857 25.31 17.8 64 30 0.2 32.4
15:00 1028 30.36 857 25.31 18 64.3 31 0.8 33.5
15:05 1028 30.36 857 25.31 18 64.5 30 0.3 32.6
15:10 1028 30.36 857 25.31 17.8 64 30 0 32
15:15 1028 30.36 857 25.31 17.6 63.8 29 -0.5 31.1
15:20 1027 30.33 857 25.31 18.6 65.4 28 -0.1 31.8
15:25 1027 30.33 857 25.31 19.2 66.5 27 -0.2 31.6
15:30 1027 30.33 857 25.31 19.1 66.3 29 0.6 33.1
15:35 1027 30.33 857 25.31 19 66.1 27 -0.4 31.2
15:40 1027 30.33 857 25.31 18.6 65.4 29 0.5 32.9
15:45 1027 30.33 857 25.31 19 66.2 28 0 32
15:50 1027 30.33 857 25.31 19.1 66.4 27 -0.4 31.4
15:55 1027 30.33 857 25.31 18.2 64.8 29 0.2 32.4
16:00 1027 30.33 857 25.31 18.5 65.4 27 -0.6 31
16:05 1027 30.33 857 25.31 18.6 65.4 28 -0 32
16:10 1027 30.33 857 25.31 19.2 66.5 26 -0.5 31
16:15 1027 30.33 857 25.31 19.3 66.7 26 -0.6 30.8
16:20 1027 30.33 856 25.28 19.1 66.4 27 -0.4 31.3
16:25 1027 30.33 856 25.28 18.9 66 28 0 32.1
16:30 1027 30.33 856 25.28 19.1 66.4 26 -0.7 30.7
16:35 1027 30.33 856 25.28 19.4 67 26 -0.4 31.3
16:40 1027 30.33 856 25.28 18.2 64.8 27 -0.7 30.7
16:45 1027 30.33 856 25.28 17.9 64.2 29 -0.4 31.3
16:50 1027 30.33 856 25.28 18.9 66 29 0.5 32.9
16:55 1027 30.33 856 25.28 19.4 67 26 -0.5 31.1
17:00 1027 30.33 856 25.28 19.4 66.9 26 -0.3 31.4
17:05 1027 30.33 856 25.28 19.1 66.4 27 -0.3 31.4
17:10 1027 30.33 856 25.28 18.9 66 28 0.3 32.6
17:15 1027 30.33 856 25.28 19.1 66.4 28 0.3 32.5
17:20 1027 30.33 856 25.28 19.7 67.5 26 -0.3 31.4
17:25 1027 30.33 856 25.28 19.6 67.3 26 -0.3 31.4
17:30 1027 30.33 856 25.28 19.1 66.5 26 -0.8 30.6
17:35 1027 30.33 856 25.28 19.2 66.6 26 -0.6 30.9
17:40 1027 30.33 856 25.28 18.6 65.5 26 -0.9 30.4
17:45 1027 30.33 856 25.28 18.8 65.8 26 -0.8 30.5
17:50 1027 30.33 856 25.28 18.6 65.4 27 -0.9 30.4
17:55 1027 30.33 856 25.28 18.8 65.8 23 -2.6 27.3
18:00 1027 30.33 856 25.28 18.1 64.6 26 -1.8 28.8
18:05 1027 30.33 856 25.28 17.5 63.6 26 -2.1 28.2
18:10 1027 30.33 856 25.28 17.4 63.4 26 -2.2 28.1
18:15 1027 30.33 856 25.28 17.8 64 26 -2 28.5
18:20 1027 30.33 856 25.28 18 64.4 26 -1.5 29.3
18:25 1027 30.33 856 25.28 17.5 63.5 27 -1.6 29.2
18:30 1027 30.33 856 25.28 17.6 63.7 25 -2.3 27.9
18:35 1027 30.33 856 25.28 17.3 63.1 28 -1.4 29.5
18:40 1027 30.33 856 25.28 17 62.6 24 -3.4 26
18:45 1027 30.33 856 25.28 16.9 62.4 24 -3.6 25.6
18:50 1027 30.33 856 25.28 16.8 62.2 23 -4.2 24.4
18:55 1027 30.33 856 25.28 16.8 62.2 24 -4 24.7
19:00 1027 30.33 856 25.28 16.8 62.2 24 -3.6 25.5
19:05 1027 30.33 856 25.28 16.7 62 25 -3.2 26.3
19:10 1027 30.33 856 25.28 16.7 62 27 -2.5 27.4
19:15 1027 30.33 856 25.28 16.7 62.1 28 -1.9 28.7
19:20 1026 30.3 856 25.28 16.7 62.1 28 -1.8 28.8
19:25 1026 30.3 856 25.28 16.7 62.1 27 -2.1 28.2
19:30 1026 30.3 856 25.28 16.7 62 28 -1.6 29
19:35 1026 30.3 856 25.28 16.5 61.8 35 1 33.8
19:40 1026 30.3 856 25.28 16.2 61.2 33 0.2 32.3
19:45 1026 30.3 856 25.28 16.1 61.1 33 0 32.1
19:50 1026 30.3 856 25.28 16 60.9 39 2.1 35.7
19:55 1026 30.3 856 25.28 15.6 60.1 40 2.2 36
20:00 1026 30.3 856 25.28 14.5 58.1 53 5 41.1
20:05 1026 30.3 856 25.28 13.3 56 58 5.3 41.5
20:10 1026 30.3 856 25.28 12.8 55.1 59 5.1 41.2
20:15 1026 30.3 856 25.28 12.5 54.5 60 4.9 40.8
20:20 1026 30.3 856 25.28 12.2 54 61 5.1 41.1
20:25 1027 30.33 856 25.28 11.8 53.2 67 5.8 42.5
20:30 1027 30.33 856 25.28 11.1 52 67 5.3 41.5
20:35 1027 30.33 856 25.28 10.8 51.5 65 4.5 40.2
20:40 1027 30.33 856 25.28 10.4 50.8 66 4.3 39.7
20:45 1027 30.33 856 25.28 10.3 50.5 65 4 39.2
20:50 1027 30.33 856 25.28 10.4 50.8 55 1.7 35.1
20:55 1027 30.33 856 25.28 10.6 51.1 54 1.6 35
21:00 1027 30.33 856 25.28 10.7 51.3 54 1.8 35.2
21:05 1027 30.33 856 25.28 10.5 50.8 55 1.9 35.5
21:10 1027 30.33 856 25.28 10.1 50.2 57 1.9 35.5
21:15 1027 30.33 856 25.28 9.9 49.9 58 2.1 35.8
21:20 1027 30.33 856 25.28 9.7 49.4 60 2.3 36.1
21:25 1027 30.33 856 25.28 9.3 48.8 61 2.2 35.9
21:30 1027 30.33 856 25.28 9.2 48.6 60 1.9 35.3
21:35 1027 30.33 856 25.28 9.4 48.9 59 1.7 35.1
21:40 1027 30.33 856 25.28 9.6 49.3 56 1.3 34.3
21:45 1027 30.33 856 25.28 9.7 49.5 55 1.3 34.3
21:50 1027 30.33 856 25.28 9.6 49.3 57 1.5 34.7
21:55 1027 30.33 856 25.28 9.5 49 55 1 33.8
22:00 1027 30.33 856 25.28 9.7 49.4 55 1 33.7
22:05 1027 30.33 856 25.28 9.7 49.5 54 0.9 33.6
22:10 1027 30.33 856 25.28 9.8 49.6 53 0.8 33.5
22:15 1027 30.33 856 25.28 9.8 49.6 54 1 33.8
22:20 1026 30.3 856 25.28 9.7 49.4 52 0.4 32.7
22:25 1026 30.3 856 25.28 9.7 49.5 52 0.5 32.9
22:30 1026 30.3 856 25.28 9.8 49.6 50 -0.2 31.6
22:35 1026 30.3 856 25.28 10 49.9 50 0.1 32.2
22:40 1026 30.3 856 25.28 9.9 49.8 52 0.5 32.9
22:45 1026 30.3 856 25.28 9.8 49.6 54 0.8 33.5
22:50 1026 30.3 856 25.28 9.6 49.2 55 1 33.8
22:55 1026 30.3 856 25.28 9.5 49.1 52 0.3 32.5
23:00 1026 30.3 856 25.28 9.5 49.1 51 -0.2 31.7
23:05 1026 30.3 855 25.25 9.6 49.2 54 0.7 33.2
23:10 1026 30.3 855 25.25 9.3 48.7 53 0.3 32.5
23:15 1026 30.3 855 25.25 9.3 48.8 51 -0.2 31.7
23:20 1026 30.3 855 25.25 9.2 48.6 52 -0.1 31.8
23:25 1026 30.3 855 25.25 9.3 48.7 51 -0.2 31.6
23:30 1026 30.3 855 25.25 9.2 48.5 51 -0.4 31.3
23:35 1026 30.3 855 25.25 9.3 48.7 49 -0.7 30.7
23:40 1026 30.3 855 25.25 9.5 49.1 49 -0.7 30.8
23:45 1026 30.3 855 25.25 9.5 49 50 -0.4 31.3
23:50 1026 30.3 855 25.25 9.4 48.9 49 -0.7 30.7
23:55 1026 30.3 855 25.25 9.5 49.2 49 -0.5 31.1
24:00 1026 30.3 855 25.25 9.5 49.2 49 -0.5 31.1